Jock — WDF2423 — position and weather

sailwx.info

Track history (hours):
 
Tides and Currents Weather Stations Pressure Air Temp Water Temp Dewpoint Dewpoint Depression Visibility Wind Speed Wind Dir Waves Ship Positions

Jock

Owner: Enterprise Marine Services, LLC, San Antonio, TX. More information available from US FCC via Universal Licensing System and Coast Guard Vessel Documentation Center.

Last reported at 2014-Nov-27 20:18 UTC. Time now 2014-Nov-27 21:58 UTC.
Position N 29°47' W 095°05'.

Length 28 m.

Type: Other ship. MMSI: 367003460.

Date/timePositionNaut miles runAvg speedWind from/ knotsBaromVisibWave heightAir tempDewpointWater temp
2014-Nov-27 20:18N 29°47' W 095°05'0 0.0
2014-Nov-26 16:33N 29°47' W 095°05'0 0.0
2014-Nov-26 15:20N 29°47' W 095°05'0 0.0
2014-Nov-26 14:31N 29°47' W 095°05'0 0.0
2014-Nov-26 13:32N 29°47' W 095°05'0 0.0
2014-Nov-26 03:29N 29°47' W 095°05'0 0.0
2014-Nov-25 23:31N 29°47' W 095°05'0 0.0
2014-Nov-25 22:33N 29°47' W 095°05'0 0.0
2014-Nov-25 21:32N 29°47' W 095°05'0 0.0
2014-Nov-25 20:33N 29°47' W 095°05'0 0.0
2014-Nov-25 19:33N 29°47' W 095°05'0 0.0
2014-Nov-25 18:33N 29°47' W 095°05'0 0.0
2014-Nov-25 17:33N 29°47' W 095°05'0 0.0
2014-Nov-25 16:33N 29°47' W 095°05'0 0.0
2014-Nov-25 15:33N 29°47' W 095°05'0 0.0
2014-Nov-25 14:33N 29°47' W 095°05'0 0.0
2014-Nov-25 13:33N 29°47' W 095°05'0 0.0
2014-Nov-25 12:26N 29°47' W 095°05'0 0.0
2014-Nov-25 11:31N 29°47' W 095°05'0 0.0
2014-Nov-25 10:15N 29°47' W 095°05'0 0.0
2014-Nov-25 09:26N 29°47' W 095°05'0 0.0
2014-Nov-25 08:33N 29°47' W 095°05'0 0.0
2014-Nov-25 07:27N 29°47' W 095°05'0 0.0
2014-Nov-25 06:30N 29°47' W 095°05'0 0.0
2014-Nov-25 05:32N 29°47' W 095°05'0 0.0
2014-Nov-25 04:26N 29°47' W 095°05'0 0.0
2014-Nov-25 03:32N 29°47' W 095°05'0 0.0
2014-Nov-24 23:21N 29°47' W 095°05'0 0.0
2014-Nov-24 22:33N 29°47' W 095°05'0 0.0
2014-Nov-24 21:33N 29°47' W 095°05'0 0.0
2014-Nov-24 20:32N 29°47' W 095°05'0 0.0
2014-Nov-24 19:33N 29°47' W 095°05'0 0.0
2014-Nov-24 18:33N 29°47' W 095°05'0 0.0
2014-Nov-24 17:33N 29°47' W 095°05'0 0.0
2014-Nov-24 16:33N 29°47' W 095°05'0 0.0
2014-Nov-24 15:31N 29°47' W 095°05'0 0.0
2014-Nov-24 14:33N 29°47' W 095°05'0 0.0
2014-Nov-24 13:32N 29°47' W 095°05'0 0.0
2014-Nov-24 05:29N 29°47' W 095°05'0 0.0
2014-Nov-24 04:20N 29°47' W 095°05'0 0.0
2014-Nov-24 01:20N 29°47' W 095°05'0 0.0
2014-Nov-23 23:32N 29°47' W 095°05'0 0.0
2014-Nov-23 22:08N 29°47' W 095°05'0 0.0
2014-Nov-23 20:28N 29°47' W 095°05'0 0.0
2014-Nov-23 05:09N 29°47' W 095°05'0 0.1
2014-Nov-22 22:26N 29°47' W 095°05'0 0.0
2014-Nov-22 21:34N 29°47' W 095°05'0 0.0
2014-Nov-22 20:32N 29°47' W 095°05'0 0.0
2014-Nov-22 19:33N 29°47' W 095°05'0 0.0
2014-Nov-22 18:33N 29°47' W 095°05'0 0.0
2014-Nov-22 17:33N 29°47' W 095°05'0 0.0
2014-Nov-22 15:19N 29°47' W 095°05'0 0.0
2014-Nov-21 19:30N 29°47' W 095°05'0 0.0
2014-Nov-21 18:20N 29°47' W 095°05'0 0.0
2014-Nov-21 17:22N 29°47' W 095°05'0 0.0
2014-Nov-21 15:33N 29°47' W 095°05'0 0.0
2014-Nov-21 14:33N 29°47' W 095°05'0 0.0
2014-Nov-20 23:19N 29°47' W 095°05'4 4.9
2014-Nov-20 22:33N 29°44' W 095°07'0 0.1
2014-Nov-20 18:33N 29°44' W 095°07'4 2.8
2014-Nov-20 17:15N 29°47' W 095°05'0 0.0
2014-Nov-20 15:32N 29°47' W 095°05'0 0.0
2014-Nov-20 14:33N 29°47' W 095°05'0 0.0
2014-Nov-20 13:33N 29°47' W 095°05'0 0.0
2014-Nov-19 23:21N 29°47' W 095°05'0 0.0
2014-Nov-19 22:13N 29°47' W 095°05'0 0.0
2014-Nov-19 20:22N 29°47' W 095°05'0 0.0
2014-Nov-19 15:08N 29°47' W 095°05'0 0.0
2014-Nov-19 14:31N 29°47' W 095°05'0 0.0
2014-Nov-19 13:32N 29°47' W 095°05'0 0.0
2014-Nov-19 00:11N 29°47' W 095°05'3 5.3
2014-Nov-18 23:33N 29°44' W 095°07'7 1.3
2014-Nov-18 18:12N 29°43' W 095°14'2 3.5
2014-Nov-18 17:33N 29°44' W 095°12'6 6.0
2014-Nov-18 16:33N 29°46' W 095°05'1 1.3
2014-Nov-18 15:22N 29°47' W 095°05'0 0.0
2014-Nov-18 14:33N 29°47' W 095°05'0 0.0
2014-Nov-18 13:29N 29°47' W 095°05'0 0.0
2014-Nov-17 23:33N 29°47' W 095°05'0 0.0
2014-Nov-17 22:30N 29°47' W 095°05'0 0.0
2014-Nov-17 21:31N 29°47' W 095°05'0 0.0
2014-Nov-17 20:33N 29°47' W 095°05'  
Track history (hours):
 
Tides and Currents Weather Stations Pressure Air Temp Water Temp Dewpoint Dewpoint Depression Visibility Wind Speed Wind Dir Waves Ship Positions

Jock

Owner: Enterprise Marine Services, LLC, San Antonio, TX. More information available from US FCC via Universal Licensing System and Coast Guard Vessel Documentation Center.

Last reported at 2014-Nov-27 20:18 UTC. Time now 2014-Nov-27 21:58 UTC.
Position N 29°47' W 095°05'.

Length 28 m.

Type: Other ship. MMSI: 367003460.

Date/timePositionNaut miles runAvg speedWind from/ knotsBaromVisibWave heightAir tempDewpointWater temp
2014-Nov-27 20:18N 29°47' W 095°05'0 0.0
2014-Nov-26 16:33N 29°47' W 095°05'0 0.0
2014-Nov-26 15:20N 29°47' W 095°05'0 0.0
2014-Nov-26 14:31N 29°47' W 095°05'0 0.0
2014-Nov-26 13:32N 29°47' W 095°05'0 0.0
2014-Nov-26 03:29N 29°47' W 095°05'0 0.0
2014-Nov-25 23:31N 29°47' W 095°05'0 0.0
2014-Nov-25 22:33N 29°47' W 095°05'0 0.0
2014-Nov-25 21:32N 29°47' W 095°05'0 0.0
2014-Nov-25 20:33N 29°47' W 095°05'0 0.0
2014-Nov-25 19:33N 29°47' W 095°05'0 0.0
2014-Nov-25 18:33N 29°47' W 095°05'0 0.0
2014-Nov-25 17:33N 29°47' W 095°05'0 0.0
2014-Nov-25 16:33N 29°47' W 095°05'0 0.0
2014-Nov-25 15:33N 29°47' W 095°05'0 0.0
2014-Nov-25 14:33N 29°47' W 095°05'0 0.0
2014-Nov-25 13:33N 29°47' W 095°05'0 0.0
2014-Nov-25 12:26N 29°47' W 095°05'0 0.0
2014-Nov-25 11:31N 29°47' W 095°05'0 0.0
2014-Nov-25 10:15N 29°47' W 095°05'0 0.0
2014-Nov-25 09:26N 29°47' W 095°05'0 0.0
2014-Nov-25 08:33N 29°47' W 095°05'0 0.0
2014-Nov-25 07:27N 29°47' W 095°05'0 0.0
2014-Nov-25 06:30N 29°47' W 095°05'0 0.0
2014-Nov-25 05:32N 29°47' W 095°05'0 0.0
2014-Nov-25 04:26N 29°47' W 095°05'0 0.0
2014-Nov-25 03:32N 29°47' W 095°05'0 0.0
2014-Nov-24 23:21N 29°47' W 095°05'0 0.0
2014-Nov-24 22:33N 29°47' W 095°05'0 0.0
2014-Nov-24 21:33N 29°47' W 095°05'0 0.0
2014-Nov-24 20:32N 29°47' W 095°05'0 0.0
2014-Nov-24 19:33N 29°47' W 095°05'0 0.0
2014-Nov-24 18:33N 29°47' W 095°05'0 0.0
2014-Nov-24 17:33N 29°47' W 095°05'0 0.0
2014-Nov-24 16:33N 29°47' W 095°05'0 0.0
2014-Nov-24 15:31N 29°47' W 095°05'0 0.0
2014-Nov-24 14:33N 29°47' W 095°05'0 0.0
2014-Nov-24 13:32N 29°47' W 095°05'0 0.0
2014-Nov-24 05:29N 29°47' W 095°05'0 0.0
2014-Nov-24 04:20N 29°47' W 095°05'0 0.0
2014-Nov-24 01:20N 29°47' W 095°05'0 0.0
2014-Nov-23 23:32N 29°47' W 095°05'0 0.0
2014-Nov-23 22:08N 29°47' W 095°05'0 0.0
2014-Nov-23 20:28N 29°47' W 095°05'0 0.0
2014-Nov-23 05:09N 29°47' W 095°05'0 0.1
2014-Nov-22 22:26N 29°47' W 095°05'0 0.0
2014-Nov-22 21:34N 29°47' W 095°05'0 0.0
2014-Nov-22 20:32N 29°47' W 095°05'0 0.0
2014-Nov-22 19:33N 29°47' W 095°05'0 0.0
2014-Nov-22 18:33N 29°47' W 095°05'0 0.0
2014-Nov-22 17:33N 29°47' W 095°05'0 0.0
2014-Nov-22 15:19N 29°47' W 095°05'0 0.0
2014-Nov-21 19:30N 29°47' W 095°05'0 0.0
2014-Nov-21 18:20N 29°47' W 095°05'0 0.0
2014-Nov-21 17:22N 29°47' W 095°05'0 0.0
2014-Nov-21 15:33N 29°47' W 095°05'0 0.0
2014-Nov-21 14:33N 29°47' W 095°05'0 0.0
2014-Nov-20 23:19N 29°47' W 095°05'4 4.9
2014-Nov-20 22:33N 29°44' W 095°07'0 0.1
2014-Nov-20 18:33N 29°44' W 095°07'4 2.8
2014-Nov-20 17:15N 29°47' W 095°05'0 0.0
2014-Nov-20 15:32N 29°47' W 095°05'0 0.0
2014-Nov-20 14:33N 29°47' W 095°05'0 0.0
2014-Nov-20 13:33N 29°47' W 095°05'0 0.0
2014-Nov-19 23:21N 29°47' W 095°05'0 0.0
2014-Nov-19 22:13N 29°47' W 095°05'0 0.0
2014-Nov-19 20:22N 29°47' W 095°05'0 0.0
2014-Nov-19 15:08N 29°47' W 095°05'0 0.0
2014-Nov-19 14:31N 29°47' W 095°05'0 0.0
2014-Nov-19 13:32N 29°47' W 095°05'0 0.0
2014-Nov-19 00:11N 29°47' W 095°05'3 5.3
2014-Nov-18 23:33N 29°44' W 095°07'7 1.3
2014-Nov-18 18:12N 29°43' W 095°14'2 3.5
2014-Nov-18 17:33N 29°44' W 095°12'6 6.0
2014-Nov-18 16:33N 29°46' W 095°05'1 1.3
2014-Nov-18 15:22N 29°47' W 095°05'0 0.0
2014-Nov-18 14:33N 29°47' W 095°05'0 0.0
2014-Nov-18 13:29N 29°47' W 095°05'0 0.0
2014-Nov-17 23:33N 29°47' W 095°05'0 0.0
2014-Nov-17 22:30N 29°47' W 095°05'0 0.0
2014-Nov-17 21:31N 29°47' W 095°05'0 0.0
2014-Nov-17 20:33N 29°47' W 095°05'  

Dump ship's entire track history